This is the latest recevied weather packets stored in our database for station/object K7SKM. If no packets are shown the sender has not sent any weather packets the latest 10 day(s).
| Time | Temp. | Humidity | Pressure | Rain* | Wind** | Luminosity | Snow |
|---|---|---|---|---|---|---|---|
| 1788195736 | 18.89° C | 64% | 1017.7 hPa | 0 mm | - | 150 W/m² | - |
| 1788195432 | 20° C | 61% | 1017.9 hPa | 0 mm | - | 167 W/m² | - |
| 1788195129 | 19.44° C | 63% | 1017.4 hPa | 0 mm | - | 199 W/m² | - |
| 1788194824 | 18.89° C | 66% | 1017.9 hPa | 0 mm | - | 190 W/m² | - |
| 1788194520 | 18.33° C | 65% | 1017.9 hPa | 0 mm | - | 183 W/m² | - |
| 1788194215 | 18.89° C | 64% | 1018 hPa | 0 mm | - | 183 W/m² | - |
| 1788193911 | 18.33° C | 65% | 1018.1 hPa | 0 mm | - | 150 W/m² | - |
| 1788193610 | 16.67° C | 69% | 1018.1 hPa | 0 mm | - | 165 W/m² | - |
| 1788193308 | 17.78° C | 66% | 1018.1 hPa | 0 mm | - | 157 W/m² | - |
| 1788193004 | 17.22° C | 67% | 1018.2 hPa | 0 mm | - | 148 W/m² | - |
| 1788192700 | 17.22° C | 66% | 1018.2 hPa | 0 mm | - | 141 W/m² | - |
| 1788192399 | 16.11° C | 70% | 1018.4 hPa | 0 mm | - | 133 W/m² | - |
| 1788192095 | 15.56° C | 71% | 1018.5 hPa | 0 mm | - | 126 W/m² | - |
| 1788191794 | 15° C | 72% | 1018.3 hPa | 0 mm | - | 120 W/m² | - |
| 1788191490 | 15.56° C | 70% | 1018.3 hPa | 0 mm | - | 89 W/m² | - |
| 1788191185 | 15.56° C | 71% | 1018.5 hPa | 0 mm | - | 110 W/m² | - |
| 1788190880 | 14.44° C | 74% | 1018.4 hPa | 0 mm | - | 103 W/m² | - |
| 1788190580 | 13.33° C | 80% | 1018.4 hPa | 0 mm | - | 96 W/m² | - |
| 1788190277 | 12.22° C | 81% | 1018.5 hPa | 0 mm | - | 29 W/m² | - |
| 1788189971 | 12.22° C | 82% | 1018.7 hPa | 0 mm | - | 27 W/m² | - |
| 1788189667 | 11.67° C | 82% | 1018.5 hPa | 0 mm | - | 27 W/m² | - |
| 1788189367 | 11.67° C | 83% | 1018.7 hPa | 0 mm | - | 25 W/m² | - |
| 1788189061 | 11.11° C | 84% | 1018.7 hPa | 0 mm | - | 25 W/m² | - |
| 1788188756 | 11.11° C | 84% | 1018.7 hPa | 0 mm | - | 26 W/m² | - |
| 1788188452 | 10.56° C | 85% | 1018.8 hPa | 0 mm | - | 26 W/m² | - |
* Rain latest hour (hover to see other rain measurements)
** Current wind speed in m/s (hover to see current wind gust speed)